Time;durP1;ratioP1;P1;durP2;ratioP2;P2;SDS_P1;SDS_P2;PMS_P1;PMS_P2;Temp;Humidity;BMP_temperature;BMP_pressure;BME280_temperature;BME280_humidity;BME280_pressure;Samples;Min_cycle;Max_cycle;Signal;HPM_P1;HPM_P2
2022/05/11 00:01:02;;;;;;;23.67;14.82;;;19.90;56.20;;;;;;5070218;28;20143;-74
2022/05/11 00:03:29;;;;;;;20.58;13.48;;;19.60;52.10;;;;;;5070394;28;20135;-74
2022/05/11 00:05:56;;;;;;;22.00;13.75;;;19.60;52.20;;;;;;5071409;28;20048;-75
2022/05/11 00:08:23;;;;;;;20.23;12.77;;;19.90;56.20;;;;;;5070208;28;20143;-75
2022/05/11 00:10:49;;;;;;;22.25;13.63;;;19.70;56.60;;;;;;5070115;28;20086;-74
2022/05/11 00:13:17;;;;;;;21.27;12.98;;;19.60;52.20;;;;;;5070250;28;20059;-74
2022/05/11 00:15:44;;;;;;;21.83;12.80;;;19.60;52.20;;;;;;5070406;28;20116;-74
2022/05/11 00:18:11;;;;;;;20.25;13.43;;;19.60;52.30;;;;;;5069864;28;20052;-74
2022/05/11 00:20:37;;;;;;;18.73;12.38;;;19.60;52.30;;;;;;5069999;28;20056;-74
2022/05/11 00:23:04;;;;;;;17.85;12.13;;;19.60;52.30;;;;;;5071131;28;20052;-75
2022/05/11 00:25:31;;;;;;;18.55;11.85;;;19.60;57.20;;;;;;5070190;28;20057;-75
2022/05/11 00:27:59;;;;;;;19.65;12.05;;;19.60;52.30;;;;;;5070094;28;20044;-75
2022/05/11 00:30:28;;;;;;;18.92;11.90;;;19.30;57.00;;;;;;5069868;28;20159;-75
2022/05/11 00:32:56;;;;;;;17.83;11.60;;;19.30;56.30;;;;;;5069673;28;20049;-75
2022/05/11 00:35:23;;;;;;;19.77;12.27;;;19.50;56.50;;;;;;5074256;28;20056;-75
2022/05/11 00:37:52;;;;;;;17.70;10.93;;;19.90;58.00;;;;;;5089788;28;20139;-75
2022/05/11 00:40:19;;;;;;;19.67;12.27;;;19.70;56.70;;;;;;5089966;28;20059;-75
2022/05/11 00:42:48;;;;;;;19.20;11.35;;;19.60;52.30;;;;;;5125818;27;20055;-75
2022/05/11 00:45:15;;;;;;;16.48;10.73;;;19.50;52.30;;;;;;5093557;28;20127;-75
2022/05/11 00:47:44;;;;;;;17.98;11.10;;;19.50;56.40;;;;;;5093757;28;20048;-75
2022/05/11 00:50:12;;;;;;;18.88;11.38;;;19.50;52.30;;;;;;5113835;27;20056;-75
2022/05/11 00:52:42;;;;;;;17.58;11.15;;;19.50;56.70;;;;;;5073046;28;20044;-75
2022/05/11 00:55:11;;;;;;;16.02;10.13;;;20.20;57.50;;;;;;5107034;28;20455;-75
2022/05/11 00:57:39;;;;;;;15.05;10.27;;;19.50;52.40;;;;;;5073022;28;20132;-75
2022/05/11 01:00:08;;;;;;;16.98;10.57;;;19.60;57.30;;;;;;5073072;28;20060;-75
2022/05/11 01:02:35;;;;;;;15.18;10.27;;;19.50;52.40;;;;;;5073326;28;20130;-75
2022/05/11 01:05:06;;;;;;;15.00;10.13;;;19.50;56.10;;;;;;5074464;28;20052;-75
2022/05/11 01:07:33;;;;;;;17.92;10.18;;;19.50;57.00;;;;;;5107045;28;20098;-75
2022/05/11 01:09:59;;;;;;;15.45;10.10;;;19.50;52.40;;;;;;5072968;28;20569;-75
2022/05/11 01:12:29;;;;;;;15.02;9.80;;;19.70;56.80;;;;;;5072956;28;20062;-75
2022/05/11 01:14:57;;;;;;;15.15;9.10;;;19.50;52.40;;;;;;5073375;28;20052;-75
2022/05/11 01:17:25;;;;;;;13.73;8.85;;;20.50;57.30;;;;;;5072320;28;20049;-75
2022/05/11 01:19:53;;;;;;;14.38;9.27;;;19.40;52.40;;;;;;5072514;28;20053;-74
2022/05/11 01:22:23;;;;;;;13.18;8.93;;;19.40;52.40;;;;;;5087436;28;20056;-75
2022/05/11 01:24:51;;;;;;;16.80;9.73;;;19.40;52.40;;;;;;5127038;27;20488;-75
2022/05/11 01:27:30;;;;;;;15.32;9.73;;;19.10;54.40;;;;;;5092777;28;20056;-75
2022/05/11 01:29:58;;;;;;;13.50;8.63;;;19.70;58.10;;;;;;5092592;28;20055;-75
2022/05/11 01:32:25;;;;;;;14.75;9.15;;;19.30;58.40;;;;;;5092840;28;20163;-75
2022/05/11 01:34:57;;;;;;;14.88;9.50;;;19.40;57.10;;;;;;5092772;28;20055;-75
2022/05/11 01:37:24;;;;;;;13.95;8.80;;;19.30;56.90;;;;;;5086165;28;20063;-75
2022/05/11 01:39:52;;;;;;;12.70;8.20;;;19.50;56.50;;;;;;5072324;28;20068;-75
2022/05/11 01:42:20;;;;;;;12.18;8.55;;;19.40;56.80;;;;;;5072299;28;20132;-75
2022/05/11 01:44:47;;;;;;;13.52;8.82;;;20.00;57.80;;;;;;5074523;28;20424;-75
2022/05/11 01:47:14;;;;;;;13.45;8.63;;;19.50;56.50;;;;;;5072189;28;20147;-75
2022/05/11 01:49:41;;;;;;;13.98;8.45;;;19.30;57.00;;;;;;5072284;28;20058;-74
2022/05/11 01:52:07;;;;;;;12.65;7.78;;;19.50;56.90;;;;;;5072606;28;20098;-75
2022/05/11 01:54:34;;;;;;;15.45;8.45;;;18.90;56.30;;;;;;5073541;28;20060;-75
2022/05/11 01:57:03;;;;;;;13.45;8.25;;;18.40;55.70;;;;;;5072019;28;20048;-75
2022/05/11 01:59:30;;;;;;;11.98;7.60;;;19.70;58.30;;;;;;5105726;28;20049;-74
2022/05/11 02:01:56;;;;;;;9.82;7.22;;;19.40;56.30;;;;;;5071980;28;20048;-75
2022/05/11 02:09:51;;;;;;;11.13;7.53;;;19.40;57.00;;;;;;5112573;27;20507;-75
2022/05/11 02:12:21;;;;;;;11.07;7.25;;;19.80;58.80;;;;;;5092117;28;20044;-75
2022/05/11 02:14:48;;;;;;;12.43;8.15;;;19.50;57.50;;;;;;5092091;28;20135;-75
2022/05/11 02:17:14;;;;;;;9.45;6.90;;;18.60;56.00;;;;;;5092271;28;20060;-75
2022/05/11 02:19:41;;;;;;;11.50;7.47;;;19.40;56.60;;;;;;5091973;28;20151;-75
2022/05/11 02:22:09;;;;;;;11.15;6.63;;;19.00;57.60;;;;;;5091827;28;20052;-75
2022/05/11 02:24:35;;;;;;;10.43;6.95;;;19.10;57.20;;;;;;5092106;28;20474;-75
2022/05/11 02:27:03;;;;;;;10.38;7.50;;;19.30;56.40;;;;;;5076386;28;20059;-75
2022/05/11 02:29:31;;;;;;;13.05;7.70;;;19.30;52.50;;;;;;5105170;28;20052;-75
2022/05/11 02:31:57;;;;;;;11.55;7.25;;;19.30;57.00;;;;;;5071492;28;20407;-75
2022/05/11 02:37:08;;;;;;;12.40;6.95;;;19.30;56.80;;;;;;5105154;28;20072;-75
2022/05/11 02:39:35;;;;;;;10.30;6.55;;;19.30;56.70;;;;;;5070655;28;20508;-75
2022/05/11 02:42:02;;;;;;;10.13;6.65;;;18.80;56.50;;;;;;5077891;28;20048;-75
2022/05/11 02:44:30;;;;;;;9.52;6.68;;;19.50;56.70;;;;;;5125661;27;20093;-75
2022/05/11 02:46:57;;;;;;;9.80;6.35;;;18.30;56.50;;;;;;5091573;28;20139;-75
2022/05/11 02:49:24;;;;;;;7.82;6.20;;;19.20;52.50;;;;;;5089717;28;20507;-75
2022/05/11 02:51:50;;;;;;;8.68;5.88;;;19.00;56.70;;;;;;5091110;28;20541;-75
2022/05/11 02:54:17;;;;;;;8.98;5.90;;;19.20;58.10;;;;;;5091367;28;20139;-75
2022/05/11 02:56:45;;;;;;;11.05;6.57;;;19.30;52.60;;;;;;5091275;28;20054;-75
2022/05/11 02:59:12;;;;;;;9.10;6.35;;;18.80;56.80;;;;;;5088897;28;20051;-75
2022/05/11 03:01:40;;;;;;;9.60;6.05;;;19.20;52.60;;;;;;5090715;28;20047;-75
2022/05/11 03:04:07;;;;;;;7.90;6.03;;;19.30;56.70;;;;;;5091130;28;20059;-75
2022/05/11 03:06:33;;;;;;;9.45;6.07;;;19.30;57.90;;;;;;5090714;28;20082;-75
2022/05/11 03:09:00;;;;;;;7.95;5.82;;;19.20;52.60;;;;;;5091132;28;20131;-75
2022/05/11 03:11:27;;;;;;;10.10;6.10;;;19.20;52.60;;;;;;5124559;27;20060;-75
2022/05/11 03:13:53;;;;;;;8.57;5.88;;;18.90;56.30;;;;;;5090637;28;20060;-75
2022/05/11 03:16:20;;;;;;;9.35;6.30;;;18.40;56.40;;;;;;5090143;28;20448;-75
2022/05/11 03:18:48;;;;;;;7.05;5.45;;;18.60;56.50;;;;;;5090816;28;20439;-75
2022/05/11 03:21:15;;;;;;;8.15;5.80;;;19.20;56.80;;;;;;5090659;28;20059;-75
2022/05/11 03:23:42;;;;;;;8.00;5.55;;;19.20;58.40;;;;;;5124970;27;20078;-75
2022/05/11 03:26:11;;;;;;;9.05;5.57;;;19.20;52.60;;;;;;5090614;28;20398;-75
2022/05/11 03:28:37;;;;;;;8.93;5.53;;;18.70;56.60;;;;;;5090775;28;20043;-75
2022/05/11 03:31:04;;;;;;;7.85;5.35;;;19.10;56.80;;;;;;5088755;28;20089;-75
2022/05/11 03:36:16;;;;;;;8.10;5.47;;;19.10;56.60;;;;;;5125029;27;20077;-75
2022/05/11 03:38:43;;;;;;;8.30;5.50;;;19.20;52.70;;;;;;5090877;28;20048;-75
2022/05/11 03:41:10;;;;;;;7.90;5.28;;;19.20;56.40;;;;;;5090375;28;20155;-75
2022/05/11 03:43:36;;;;;;;7.68;5.30;;;19.00;56.80;;;;;;5090725;28;20131;-75
2022/05/11 03:46:03;;;;;;;7.68;5.55;;;19.20;56.90;;;;;;5090848;28;20548;-75
2022/05/11 03:48:30;;;;;;;6.50;4.82;;;19.50;56.70;;;;;;5089003;28;20048;-75
2022/05/11 03:50:57;;;;;;;8.10;5.15;;;19.20;56.40;;;;;;5090401;28;20052;-75
2022/05/11 03:53:25;;;;;;;7.85;5.18;;;18.90;56.50;;;;;;5090455;28;20408;-75
2022/05/11 03:55:51;;;;;;;7.90;5.00;;;19.10;52.60;;;;;;5090347;28;20131;-75
2022/05/11 03:58:18;;;;;;;7.45;4.60;;;19.00;57.30;;;;;;5090617;28;20051;-75
2022/05/11 04:00:45;;;;;;;8.30;5.10;;;19.10;58.20;;;;;;5090459;28;20138;-74
2022/05/11 04:03:12;;;;;;;7.15;4.88;;;19.10;56.80;;;;;;5088528;28;20056;-75
2022/05/11 04:05:38;;;;;;;7.20;4.88;;;19.60;57.80;;;;;;5090866;28;20052;-75
2022/05/11 04:08:06;;;;;;;6.80;4.40;;;19.10;52.70;;;;;;5091686;28;20448;-75
2022/05/11 04:10:34;;;;;;;5.88;4.55;;;19.50;57.10;;;;;;5090462;28;20063;-75
2022/05/11 04:13:01;;;;;;;8.02;5.15;;;19.30;57.30;;;;;;5090260;28;20447;-75
2022/05/11 04:15:28;;;;;;;6.75;4.57;;;19.20;57.40;;;;;;5124744;27;20048;-75
2022/05/11 04:17:55;;;;;;;6.82;5.00;;;19.10;52.70;;;;;;5092105;28;20511;-75
2022/05/11 04:20:22;;;;;;;7.95;4.95;;;19.10;52.70;;;;;;5092647;28;20060;-75
2022/05/11 04:22:49;;;;;;;6.38;4.60;;;18.90;57.60;;;;;;5089043;28;20059;-73
2022/05/11 04:25:16;;;;;;;6.25;4.63;;;19.00;57.20;;;;;;5073650;28;20106;-73
2022/05/11 04:27:45;;;;;;;6.55;4.63;;;19.10;52.70;;;;;;5075088;28;20048;-72
2022/05/11 04:30:13;;;;;;;5.82;4.22;;;19.20;57.00;;;;;;5073816;28;20485;-72
2022/05/11 04:32:39;;;;;;;5.35;4.05;;;19.00;57.70;;;;;;5107824;28;20412;-72
2022/05/11 04:35:07;;;;;;;6.13;3.90;;;18.60;57.20;;;;;;5075189;28;20063;-72
2022/05/11 04:37:34;;;;;;;5.88;4.00;;;20.20;59.50;;;;;;5087614;28;20055;-72
2022/05/11 04:40:01;;;;;;;5.65;4.10;;;19.10;57.30;;;;;;5094749;28;20044;-72
2022/05/11 04:42:28;;;;;;;5.90;3.88;;;19.10;57.60;;;;;;5128311;27;20556;-74
2022/05/11 04:44:56;;;;;;;5.50;3.90;;;19.00;52.70;;;;;;5128335;27;20135;-74
2022/05/11 04:47:22;;;;;;;5.68;3.88;;;19.60;57.60;;;;;;5093721;28;20055;-74
2022/05/11 04:49:52;;;;;;;5.32;4.10;;;19.00;52.80;;;;;;5094956;28;20040;-74
2022/05/11 04:52:18;;;;;;;5.57;3.83;;;19.00;52.70;;;;;;5092398;28;20050;-74
2022/05/11 04:54:48;;;;;;;5.38;3.97;;;19.20;56.90;;;;;;5093917;28;20404;-74
2022/05/11 04:57:14;;;;;;;5.88;3.60;;;19.60;57.30;;;;;;5093639;28;20048;-74
2022/05/11 04:59:41;;;;;;;4.82;3.45;;;19.00;52.70;;;;;;5093278;28;20492;-74
2022/05/11 05:02:15;;;;;;;6.53;3.60;;;19.10;57.50;;;;;;5093771;28;20129;-73
2022/05/11 05:04:42;;;;;;;4.55;3.33;;;18.90;56.90;;;;;;5094001;28;20411;-74
2022/05/11 05:07:09;;;;;;;4.60;3.55;;;18.00;55.90;;;;;;5093211;28;20051;-74
2022/05/11 05:09:35;;;;;;;4.22;3.13;;;19.20;55.10;;;;;;5091811;28;20044;-73
2022/05/11 05:12:02;;;;;;;6.65;3.42;;;19.00;52.70;;;;;;5093737;28;20493;-75
2022/05/11 05:14:29;;;;;;;5.10;3.17;;;19.00;57.10;;;;;;5093590;28;20141;-75
2022/05/11 05:17:00;;;;;;;4.57;3.60;;;19.20;56.90;;;;;;5093701;28;20440;-74
2022/05/11 05:19:29;;;;;;;4.32;3.35;;;18.80;56.90;;;;;;5093031;28;20074;-75
2022/05/11 05:21:55;;;;;;;4.88;3.03;;;19.00;52.60;;;;;;5094613;28;20040;-73
2022/05/11 05:24:22;;;;;;;4.75;3.00;;;19.00;52.60;;;;;;5093300;28;20052;-74
2022/05/11 05:26:49;;;;;;;4.78;3.47;;;19.10;57.60;;;;;;5091638;28;20394;-75
2022/05/11 05:32:02;;;;;;;3.95;3.00;;;17.90;58.40;;;;;;5127061;27;20048;-76
2022/05/11 05:34:31;;;;;;;5.38;3.47;;;20.00;57.60;;;;;;5093140;28;20052;-75
2022/05/11 05:36:57;;;;;;;4.90;3.20;;;19.10;58.70;;;;;;5093015;28;20055;-75
2022/05/11 05:39:24;;;;;;;5.38;3.00;;;19.70;57.10;;;;;;5092788;28;20074;-74
2022/05/11 05:41:52;;;;;;;5.75;2.80;;;19.30;56.90;;;;;;5091030;28;20044;-75
2022/05/11 05:44:18;;;;;;;4.25;2.88;;;19.10;52.70;;;;;;5092926;28;20130;-74
2022/05/11 05:46:45;;;;;;;4.32;2.70;;;19.10;57.00;;;;;;5092654;28;20044;-74
2022/05/11 05:49:13;;;;;;;3.25;2.40;;;18.40;56.90;;;;;;5092625;28;20566;-73
2022/05/11 05:51:42;;;;;;;4.50;2.63;;;19.10;57.20;;;;;;5092596;28;20056;-74
2022/05/11 05:54:09;;;;;;;4.82;2.67;;;19.10;52.80;;;;;;5092875;28;20056;-74
2022/05/11 05:56:36;;;;;;;6.20;2.65;;;18.90;58.60;;;;;;5127081;27;20060;-74
2022/05/11 05:59:05;;;;;;;3.58;2.75;;;19.10;57.30;;;;;;5124829;27;20087;-73
2022/05/11 06:01:35;;;;;;;3.85;2.47;;;19.20;56.80;;;;;;5093387;28;20113;-75
2022/05/11 06:04:02;;;;;;;3.50;2.58;;;19.10;58.30;;;;;;5092553;28;20052;-74
2022/05/11 06:06:29;;;;;;;5.00;2.53;;;18.20;56.40;;;;;;5126540;27;20109;-74
2022/05/11 06:08:57;;;;;;;4.53;2.58;;;19.10;52.80;;;;;;5092420;28;20058;-74
2022/05/11 06:11:24;;;;;;;4.30;2.53;;;19.00;57.50;;;;;;5092043;28;20052;-74
2022/05/11 06:13:51;;;;;;;3.53;2.42;;;19.10;52.90;;;;;;5090361;28;20054;-73
2022/05/11 06:16:18;;;;;;;4.32;2.40;;;18.40;56.70;;;;;;5092118;28;20131;-74
2022/05/11 06:18:45;;;;;;;4.05;2.58;;;18.90;58.10;;;;;;5092371;28;20469;-75
2022/05/11 06:21:12;;;;;;;4.70;2.80;;;19.10;52.90;;;;;;5091926;28;20055;-74
2022/05/11 06:23:40;;;;;;;3.85;2.50;;;19.10;52.90;;;;;;5092208;28;20056;-74
2022/05/11 06:26:12;;;;;;;3.63;2.50;;;19.10;57.60;;;;;;5080326;28;20055;-75
2022/05/11 06:28:39;;;;;;;5.45;2.60;;;18.10;57.50;;;;;;5071753;28;20413;-75
2022/05/11 06:31:06;;;;;;;2.80;2.33;;;19.10;57.50;;;;;;5071626;28;20057;-74
2022/05/11 06:33:33;;;;;;;3.00;2.15;;;19.10;52.90;;;;;;5071993;28;20385;-75
2022/05/11 06:36:00;;;;;;;3.30;2.50;;;19.20;56.90;;;;;;5071392;28;20052;-74
2022/05/11 06:38:26;;;;;;;4.90;2.80;;;19.20;57.10;;;;;;5073167;28;20053;-75
2022/05/11 06:40:53;;;;;;;4.43;2.60;;;19.20;52.80;;;;;;5123299;27;20062;-75
2022/05/11 06:43:21;;;;;;;4.30;2.58;;;19.40;57.90;;;;;;5091081;28;20052;-74
2022/05/11 06:45:48;;;;;;;3.83;2.45;;;18.50;57.00;;;;;;5091389;28;20091;-74
2022/05/11 06:48:15;;;;;;;4.22;2.65;;;18.50;57.10;;;;;;5091476;28;20055;-74
2022/05/11 06:50:42;;;;;;;4.97;3.00;;;19.20;52.80;;;;;;5091566;28;20040;-74
2022/05/11 06:53:10;;;;;;;5.25;2.72;;;19.30;57.80;;;;;;5125656;27;20044;-74
2022/05/11 07:01:11;;;;;;;5.25;2.45;;;19.30;57.00;;;;;;5097280;28;20048;-73
2022/05/11 07:03:37;;;;;;;9.75;2.58;;;19.40;56.80;;;;;;5100549;28;20051;-73
2022/05/11 07:06:05;;;;;;;5.15;2.70;;;19.00;56.80;;;;;;5102271;28;20458;-74
2022/05/11 07:08:34;;;;;;;5.68;3.22;;;18.60;56.50;;;;;;5099040;28;20048;-73
2022/05/11 07:13:46;;;;;;;9.30;2.88;;;20.00;57.30;;;;;;5099983;28;20039;-73
2022/05/11 07:16:13;;;;;;;3.00;2.33;;;19.30;57.10;;;;;;5101061;28;20060;-73
2022/05/11 07:18:40;;;;;;;3.85;2.50;;;19.40;58.60;;;;;;5100020;28;20411;-73
2022/05/11 07:21:07;;;;;;;3.50;2.20;;;19.40;52.70;;;;;;5096615;28;20058;-73
2022/05/11 07:23:34;;;;;;;3.53;2.20;;;19.50;58.30;;;;;;5102506;28;20133;-73
2022/05/11 07:26:01;;;;;;;2.45;2.00;;;19.80;53.50;;;;;;5110956;28;20078;-73
2022/05/11 07:28:28;;;;;;;3.25;2.55;;;19.50;52.70;;;;;;5099014;28;20047;-73
2022/05/11 07:30:56;;;;;;;3.50;2.30;;;19.20;56.90;;;;;;5124717;27;20127;-73
2022/05/11 07:33:22;;;;;;;5.18;2.50;;;19.50;52.60;;;;;;5091197;28;20062;-73
2022/05/11 07:35:50;;;;;;;4.47;2.55;;;19.40;57.10;;;;;;5090959;28;20052;-70
2022/05/11 07:38:18;;;;;;;5.47;2.70;;;18.80;56.60;;;;;;5090347;28;20105;-71
2022/05/11 07:40:45;;;;;;;3.65;2.70;;;19.50;58.00;;;;;;5090446;28;20044;-71
2022/05/11 07:43:12;;;;;;;4.03;2.40;;;19.50;52.60;;;;;;5090965;28;20059;-73
2022/05/11 07:45:39;;;;;;;3.92;2.50;;;19.80;58.10;;;;;;5071891;28;20044;-73
2022/05/11 07:48:08;;;;;;;3.75;2.10;;;18.90;56.70;;;;;;5104429;28;20057;-73
2022/05/11 07:50:35;;;;;;;3.80;2.20;;;19.60;52.60;;;;;;5070325;28;20147;-74
2022/05/11 07:53:02;;;;;;;3.72;2.25;;;19.90;56.80;;;;;;5074515;28;20047;-73
2022/05/11 07:55:29;;;;;;;3.15;2.30;;;19.80;58.20;;;;;;5074807;28;20139;-73
2022/05/11 08:00:40;;;;;;;6.10;2.35;;;19.60;52.40;;;;;;5052110;28;20056;-74
2022/05/11 08:03:09;;;;;;;4.10;2.33;;;19.70;57.50;;;;;;5094946;28;20407;-73
2022/05/11 08:05:37;;;;;;;4.15;2.40;;;19.70;52.50;;;;;;5094537;28;20052;-74
2022/05/11 08:08:05;;;;;;;4.63;2.20;;;19.70;56.50;;;;;;5095755;28;20044;-76
2022/05/11 08:10:34;;;;;;;4.45;2.40;;;19.70;52.30;;;;;;5094503;28;20052;-75
2022/05/11 08:13:05;;;;;;;3.67;1.92;;;19.80;56.40;;;;;;5128793;27;20055;-74
2022/05/11 08:15:32;;;;;;;3.42;2.05;;;20.40;56.50;;;;;;5093864;28;20131;-74
2022/05/11 08:17:59;;;;;;;4.28;2.33;;;19.90;52.10;;;;;;5098152;28;20465;-75
2022/05/11 08:20:28;;;;;;;6.13;2.30;;;20.00;55.70;;;;;;5104731;28;20071;-74
2022/05/11 08:22:56;;;;;;;4.72;2.10;;;19.10;56.30;;;;;;5125326;27;20048;-75
2022/05/11 08:25:24;;;;;;;4.25;2.63;;;19.60;55.60;;;;;;5091452;28;20048;-75
2022/05/11 08:27:51;;;;;;;5.13;2.05;;;19.90;55.50;;;;;;5102806;28;20052;-74
2022/05/11 08:33:22;;;;;;;3.08;1.90;;;20.10;51.60;;;;;;5103288;28;20047;-75
2022/05/11 08:35:52;;;;;;;2.70;2.00;;;20.20;51.60;;;;;;5104671;28;20492;-74
2022/05/11 08:38:19;;;;;;;4.63;2.13;;;20.20;51.60;;;;;;5103516;28;20044;-75
2022/05/11 08:40:47;;;;;;;2.28;1.83;;;20.30;51.50;;;;;;5102469;28;20044;-75
2022/05/11 08:43:15;;;;;;;2.70;1.80;;;20.80;56.00;;;;;;5100946;28;20047;-75
2022/05/11 08:45:43;;;;;;;3.08;1.90;;;20.50;55.20;;;;;;5103809;28;20047;-75
2022/05/11 08:48:11;;;;;;;2.95;1.85;;;20.60;56.50;;;;;;5102355;28;20048;-75
2022/05/11 08:50:38;;;;;;;3.08;1.83;;;20.50;51.10;;;;;;5103683;28;20138;-75
2022/05/11 08:53:07;;;;;;;2.85;1.70;;;20.70;55.30;;;;;;5099121;28;20140;-74
2022/05/11 08:55:37;;;;;;;1.92;1.70;;;20.70;55.90;;;;;;5088791;28;20153;-73
2022/05/11 08:58:07;;;;;;;3.20;1.45;;;19.60;55.70;;;;;;5081273;28;20059;-74
2022/05/11 09:00:33;;;;;;;2.13;1.40;;;20.80;50.70;;;;;;5079487;28;20408;-73
2022/05/11 09:03:02;;;;;;;2.25;1.50;;;20.90;54.90;;;;;;5092576;28;20056;-72
2022/05/11 09:05:30;;;;;;;3.97;2.13;;;21.00;56.70;;;;;;5092760;28;20048;-72
2022/05/11 09:07:57;;;;;;;3.05;1.70;;;20.90;50.50;;;;;;5124990;27;20047;-74
2022/05/11 09:10:27;;;;;;;2.58;1.60;;;20.90;55.00;;;;;;5093347;28;20055;-73
2022/05/11 09:12:55;;;;;;;3.42;1.80;;;21.30;54.70;;;;;;5092629;28;20511;-74
2022/05/11 09:15:21;;;;;;;3.40;1.50;;;21.20;54.20;;;;;;5091095;28;20068;-74
2022/05/11 09:17:51;;;;;;;2.90;1.65;;;;;;;;;;5090401;28;20091;-71
2022/05/11 09:20:22;;;;;;;3.65;1.83;;;21.30;56.00;;;;;;5093047;28;20394;-73
2022/05/11 09:22:58;;;;;;;3.75;1.70;;;21.20;54.90;;;;;;5081758;28;20105;-73
2022/05/11 09:25:28;;;;;;;2.28;1.50;;;21.10;55.20;;;;;;5092020;28;20480;-72
2022/05/11 09:27:55;;;;;;;18.10;2.00;;;21.40;54.20;;;;;;5092185;28;20147;-74
2022/05/11 09:30:23;;;;;;;3.03;1.70;;;21.10;50.50;;;;;;5092212;28;20054;-74
2022/05/11 09:32:53;;;;;;;4.50;1.80;;;21.10;50.40;;;;;;5093827;28;20048;-74
2022/05/11 09:35:27;;;;;;;3.85;1.70;;;21.10;50.40;;;;;;5092999;28;20056;-74
2022/05/11 09:38:01;;;;;;;4.43;1.60;;;21.70;54.60;;;;;;5092184;28;20062;-73
2022/05/11 09:40:30;;;;;;;8.57;1.90;;;21.30;55.60;;;;;;5089718;28;20482;-73
2022/05/11 09:42:59;;;;;;;6.63;3.30;;;21.30;54.10;;;;;;5092426;28;20417;-73
2022/05/11 09:45:41;;;;;;;6.72;2.90;;;21.20;50.50;;;;;;5094018;28;20479;-73
2022/05/11 09:48:13;;;;;;;7.57;2.38;;;21.30;56.00;;;;;;5093634;28;20054;-74
2022/05/11 09:50:40;;;;;;;10.35;3.17;;;21.30;55.90;;;;;;5091936;28;20048;-74
2022/05/11 09:53:17;;;;;;;9.55;3.30;;;21.20;50.40;;;;;;5126145;27;20134;-73
2022/05/11 09:55:45;;;;;;;17.25;4.72;;;21.30;56.80;;;;;;5093992;28;20040;-73
2022/05/11 09:58:12;;;;;;;10.60;3.90;;;21.20;55.70;;;;;;5100973;28;20404;-72
2022/05/11 10:00:40;;;;;;;13.32;4.95;;;21.20;50.30;;;;;;5092386;28;20476;-72
2022/05/11 10:03:10;;;;;;;15.70;4.47;;;21.30;50.30;;;;;;5097665;28;20047;-72
2022/05/11 10:05:38;;;;;;;19.40;4.30;;;21.30;50.30;;;;;;5100235;28;20056;-73
2022/05/11 10:08:07;;;;;;;13.18;3.88;;;21.30;50.40;;;;;;5092840;28;20066;-72
2022/05/11 10:10:37;;;;;;;12.15;4.20;;;21.30;50.30;;;;;;5091446;28;20127;-74
2022/05/11 10:13:12;;;;;;;11.23;4.60;;;21.30;55.50;;;;;;5091984;28;20051;-74
2022/05/11 10:24:15;;;;;;;10.60;3.97;;;21.90;54.60;;;;;;5057443;28;20044;-74
2022/05/11 10:26:46;;;;;;;9.73;3.95;;;21.60;54.50;;;;;;5092448;28;20044;-73
2022/05/11 10:29:18;;;;;;;8.77;3.33;;;21.30;55.40;;;;;;5091961;28;20056;-74
2022/05/11 10:31:48;;;;;;;9.88;3.70;;;21.20;50.30;;;;;;5091686;28;20052;-74
2022/05/11 10:34:17;;;;;;;11.05;3.42;;;21.30;56.70;;;;;;5091694;28;20044;-74
2022/05/11 10:36:47;;;;;;;9.32;3.13;;;21.20;54.40;;;;;;5091368;28;20473;-73
2022/05/11 10:39:20;;;;;;;8.20;3.15;;;21.30;50.50;;;;;;5125715;27;20055;-73
2022/05/11 10:41:48;;;;;;;6.60;3.08;;;21.30;50.50;;;;;;5092820;28;20040;-73
2022/05/11 10:44:28;;;;;;;9.73;3.20;;;21.70;54.90;;;;;;5092451;28;20090;-73
2022/05/11 10:46:58;;;;;;;9.00;2.97;;;21.20;54.20;;;;;;5090727;28;20052;-73
2022/05/11 10:49:42;;;;;;;9.63;2.90;;;21.40;55.00;;;;;;5092907;28;20127;-74
2022/05/11 10:52:28;;;;;;;12.60;3.25;;;21.10;54.80;;;;;;5091335;28;20114;-74
2022/05/11 10:55:12;;;;;;;8.27;3.05;;;21.10;56.10;;;;;;5099340;28;20052;-74
2022/05/11 10:57:42;;;;;;;8.52;3.05;;;21.20;50.50;;;;;;5097569;28;20399;-73
2022/05/11 11:00:12;;;;;;;10.32;3.70;;;20.70;55.20;;;;;;5110239;28;20087;-74
2022/05/11 11:03:18;;;;;;;8.35;2.97;;;20.30;54.30;;;;;;5106267;28;20062;-76
2022/05/11 11:08:51;;;;;;;9.23;3.13;;;21.30;50.50;;;;;;5086719;28;20044;-74
2022/05/11 11:11:21;;;;;;;11.20;3.00;;;21.30;55.50;;;;;;5088640;28;20511;-74
2022/05/11 11:13:52;;;;;;;9.40;3.35;;;20.90;54.20;;;;;;5091048;28;20139;-74
2022/05/11 11:16:20;;;;;;;16.08;3.47;;;21.30;50.30;;;;;;5092091;28;20428;-73
2022/05/11 11:18:48;;;;;;;8.40;3.05;;;21.30;50.30;;;;;;5091247;28;20048;-74
2022/05/11 11:21:15;;;;;;;10.63;2.90;;;21.10;53.50;;;;;;5090670;28;20435;-74
2022/05/11 11:23:43;;;;;;;13.90;3.25;;;21.30;50.20;;;;;;5090987;28;20058;-74
2022/05/11 11:26:10;;;;;;;12.63;3.53;;;21.30;50.20;;;;;;5090102;28;20528;-74
2022/05/11 11:29:10;;;;;;;8.07;2.83;;;21.30;50.20;;;;;;5091039;28;20062;-73
2022/05/11 11:32:11;;;;;;;7.95;2.63;;;21.30;49.60;;;;;;5090106;28;20074;-73
2022/05/11 11:34:38;;;;;;;6.15;2.67;;;21.40;50.20;;;;;;5090940;28;20059;-74
2022/05/11 11:37:36;;;;;;;6.72;2.55;;;21.30;53.50;;;;;;5090577;28;20056;-73
2022/05/11 11:40:21;;;;;;;7.35;2.55;;;21.30;49.60;;;;;;5089025;28;20150;-73
2022/05/11 11:42:48;;;;;;;6.80;2.60;;;21.40;50.20;;;;;;5121857;28;20040;-73
2022/05/11 11:46:05;;;;;;;6.28;2.45;;;21.40;50.20;;;;;;5097508;28;20048;-74
2022/05/11 11:48:35;;;;;;;7.78;2.55;;;21.40;50.20;;;;;;5100945;28;20048;-73
2022/05/11 11:51:03;;;;;;;6.70;2.35;;;21.30;50.20;;;;;;5098194;28;20051;-74
2022/05/11 11:53:36;;;;;;;6.38;2.47;;;21.40;50.20;;;;;;5099775;28;20490;-73
2022/05/11 11:56:34;;;;;;;7.60;2.53;;;21.50;54.40;;;;;;5098386;28;20083;-74
2022/05/11 11:59:03;;;;;;;5.47;2.30;;;21.40;55.70;;;;;;5094047;28;20051;-74
2022/05/11 12:01:31;;;;;;;7.18;2.25;;;21.40;50.20;;;;;;5096053;28;20087;-73
2022/05/11 12:04:01;;;;;;;7.50;2.30;;;21.40;50.20;;;;;;5090615;28;20051;-73
2022/05/11 12:15:02;;;;;;;6.35;2.03;;;21.50;54.00;;;;;;5089826;28;20056;-74
2022/05/11 12:17:32;;;;;;;5.85;1.98;;;21.30;50.10;;;;;;5091490;28;20060;-74
2022/05/11 12:20:10;;;;;;;5.07;1.90;;;21.50;54.00;;;;;;5090350;28;20056;-73
2022/05/11 12:22:47;;;;;;;3.72;1.75;;;21.40;50.10;;;;;;5090305;28;20048;-73
2022/05/11 12:25:21;;;;;;;5.95;1.92;;;21.40;50.10;;;;;;5090342;28;20056;-73
2022/05/11 12:27:48;;;;;;;4.25;1.88;;;21.30;55.20;;;;;;5090548;28;20412;-74
2022/05/11 12:30:18;;;;;;;5.65;1.90;;;21.40;50.10;;;;;;5090430;28;20135;-73
2022/05/11 12:32:50;;;;;;;6.65;1.83;;;21.40;55.80;;;;;;5090073;28;20123;-73
2022/05/11 12:35:19;;;;;;;4.90;2.03;;;21.40;50.10;;;;;;5090195;28;20135;-73
2022/05/11 12:37:53;;;;;;;4.18;1.70;;;21.40;50.10;;;;;;5090506;28;20506;-73
2022/05/11 12:40:20;;;;;;;3.88;1.70;;;21.30;49.60;;;;;;5093720;28;20408;-73
2022/05/11 12:42:48;;;;;;;4.88;1.98;;;21.50;53.80;;;;;;5093861;28;20052;-73
2022/05/11 12:45:18;;;;;;;3.53;1.70;;;21.80;54.70;;;;;;5094095;28;20095;-73
2022/05/11 12:47:46;;;;;;;3.40;1.83;;;21.40;50.10;;;;;;5094473;28;20040;-73
2022/05/11 12:50:19;;;;;;;3.40;1.60;;;21.60;54.20;;;;;;5094797;28;20493;-74
2022/05/11 12:52:46;;;;;;;3.63;1.52;;;21.10;53.90;;;;;;5093906;28;20055;-73
2022/05/11 12:55:13;;;;;;;3.10;1.60;;;21.40;50.10;;;;;;5093832;28;20066;-73
2022/05/11 12:57:42;;;;;;;3.47;1.60;;;21.40;50.10;;;;;;5093716;28;20134;-74
2022/05/11 13:00:16;;;;;;;5.90;1.60;;;21.60;54.70;;;;;;5093392;28;20144;-73
2022/05/11 13:02:44;;;;;;;3.88;1.40;;;21.50;54.20;;;;;;5093460;28;20563;-73
2022/05/11 13:05:15;;;;;;;3.83;1.70;;;21.40;50.10;;;;;;5093048;28;20086;-74
2022/05/11 13:07:45;;;;;;;3.63;1.55;;;21.40;50.10;;;;;;5093540;28;20135;-72
2022/05/11 13:10:15;;;;;;;2.45;1.30;;;21.40;50.10;;;;;;5091823;28;20082;-73
2022/05/11 13:12:41;;;;;;;3.75;1.40;;;21.40;50.10;;;;;;5096360;28;20047;-73
2022/05/11 13:15:09;;;;;;;2.75;1.40;;;21.40;50.10;;;;;;5095860;28;20052;-73
2022/05/11 13:17:37;;;;;;;6.32;1.42;;;21.40;50.10;;;;;;5091559;28;20047;-73
2022/05/11 13:20:06;;;;;;;3.05;1.40;;;21.40;50.10;;;;;;5095514;28;20071;-74
2022/05/11 13:22:32;;;;;;;4.85;1.50;;;21.40;50.10;;;;;;5092560;28;20040;-74
2022/05/11 13:25:01;;;;;;;4.97;1.60;;;22.00;54.90;;;;;;5092261;28;20424;-74
2022/05/11 13:27:37;;;;;;;3.03;1.50;;;21.40;50.00;;;;;;5092896;28;20048;-74
2022/05/11 13:30:21;;;;;;;3.65;1.58;;;21.40;50.00;;;;;;5092895;28;20063;-74
2022/05/11 13:32:50;;;;;;;2.85;1.20;;;21.40;50.00;;;;;;5093134;28;20131;-74
2022/05/11 13:35:22;;;;;;;3.22;1.48;;;21.40;50.00;;;;;;5092985;28;20067;-74
2022/05/11 13:38:16;;;;;;;5.50;2.17;;;21.50;50.10;;;;;;5093016;28;20078;-74
2022/05/11 13:40:57;;;;;;;4.53;1.30;;;21.10;53.80;;;;;;5092278;28;20557;-74